sensor_id;sensor_type;location;lat;lon;timestamp;pressure;altitude;pressure_sealevel;temperature;humidity
11542;BME280;5827;49.482;7.716;2023-04-01T00:01:10;97244.78;;;11.04;95.43
11542;BME280;5827;49.482;7.716;2023-04-01T00:03:13;97245.91;;;10.98;95.00
11542;BME280;5827;49.482;7.716;2023-04-01T00:05:15;97261.34;;;11.11;95.18
11542;BME280;5827;49.482;7.716;2023-04-01T00:07:17;97243.22;;;10.98;95.38
11542;BME280;5827;49.482;7.716;2023-04-01T00:09:19;97243.41;;;11.06;94.93
11542;BME280;5827;49.482;7.716;2023-04-01T00:11:20;97243.66;;;11.10;94.22
11542;BME280;5827;49.482;7.716;2023-04-01T00:13:24;97244.50;;;11.05;95.14
11542;BME280;5827;49.482;7.716;2023-04-01T00:15:26;97231.72;;;10.97;95.65
11542;BME280;5827;49.482;7.716;2023-04-01T00:17:28;97230.03;;;11.06;94.54
11542;BME280;5827;49.482;7.716;2023-04-01T00:19:29;97234.06;;;11.04;94.06
11542;BME280;5827;49.482;7.716;2023-04-01T00:21:32;97231.53;;;10.88;95.71
11542;BME280;5827;49.482;7.716;2023-04-01T00:23:34;97240.84;;;10.96;95.36
11542;BME280;5827;49.482;7.716;2023-04-01T00:25:35;97235.00;;;10.89;95.92
11542;BME280;5827;49.482;7.716;2023-04-01T00:27:37;97238.22;;;10.91;95.32
11542;BME280;5827;49.482;7.716;2023-04-01T00:29:43;97236.75;;;10.75;96.91
11542;BME280;5827;49.482;7.716;2023-04-01T00:31:44;97238.34;;;10.76;96.30
11542;BME280;5827;49.482;7.716;2023-04-01T00:33:46;97231.88;;;10.82;97.25
11542;BME280;5827;49.482;7.716;2023-04-01T00:35:48;97231.94;;;10.72;96.34
11542;BME280;5827;49.482;7.716;2023-04-01T00:37:50;97240.22;;;10.75;96.35
11542;BME280;5827;49.482;7.716;2023-04-01T00:39:51;97227.81;;;10.84;96.25
11542;BME280;5827;49.482;7.716;2023-04-01T00:41:53;97239.97;;;10.77;96.16
11542;BME280;5827;49.482;7.716;2023-04-01T00:44:17;97225.31;;;10.93;95.88
11542;BME280;5827;49.482;7.716;2023-04-01T00:46:20;97238.13;;;11.01;96.15
11542;BME280;5827;49.482;7.716;2023-04-01T00:48:23;97234.03;;;10.80;94.76
11542;BME280;5827;49.482;7.716;2023-04-01T00:50:26;97233.91;;;10.95;95.47
11542;BME280;5827;49.482;7.716;2023-04-01T00:52:29;97233.25;;;11.03;94.95
11542;BME280;5827;49.482;7.716;2023-04-01T00:54:32;97245.91;;;10.98;95.99
11542;BME280;5827;49.482;7.716;2023-04-01T00:56:35;97233.50;;;11.07;95.20
11542;BME280;5827;49.482;7.716;2023-04-01T00:58:42;97234.81;;;11.09;95.52
11542;BME280;5827;49.482;7.716;2023-04-01T01:00:45;97230.53;;;10.50;97.38
11542;BME280;5827;49.482;7.716;2023-04-01T01:02:50;97222.06;;;10.72;97.76
11542;BME280;5827;49.482;7.716;2023-04-01T01:04:52;97224.16;;;10.75;97.50
11542;BME280;5827;49.482;7.716;2023-04-01T01:07:00;97226.13;;;10.64;96.05
11542;BME280;5827;49.482;7.716;2023-04-01T01:09:19;97230.75;;;10.59;96.64
11542;BME280;5827;49.482;7.716;2023-04-01T01:11:29;97228.97;;;10.78;98.66
11542;BME280;5827;49.482;7.716;2023-04-01T01:13:40;97220.25;;;10.62;99.81
11542;BME280;5827;49.482;7.716;2023-04-01T01:15:46;97224.31;;;10.60;100.00
11542;BME280;5827;49.482;7.716;2023-04-01T01:17:55;97214.38;;;10.60;100.00
11542;BME280;5827;49.482;7.716;2023-04-01T01:22:52;97214.19;;;10.52;100.00
11542;BME280;5827;49.482;7.716;2023-04-01T01:25:12;97218.84;;;10.70;99.47
11542;BME280;5827;49.482;7.716;2023-04-01T01:27:17;97221.72;;;10.79;98.42
11542;BME280;5827;49.482;7.716;2023-04-01T01:30:00;97223.97;;;10.66;98.56
11542;BME280;5827;49.482;7.716;2023-04-01T01:32:12;97220.44;;;10.71;98.73
11542;BME280;5827;49.482;7.716;2023-04-01T01:34:22;97216.66;;;10.77;98.52
11542;BME280;5827;49.482;7.716;2023-04-01T01:36:32;97214.94;;;10.57;99.48
11542;BME280;5827;49.482;7.716;2023-04-01T01:38:34;97224.34;;;10.55;99.86
11542;BME280;5827;49.482;7.716;2023-04-01T01:40:39;97207.84;;;10.42;100.00
11542;BME280;5827;49.482;7.716;2023-04-01T01:42:45;97211.84;;;10.74;99.41
11542;BME280;5827;49.482;7.716;2023-04-01T01:44:49;97211.09;;;10.68;100.00
11542;BME280;5827;49.482;7.716;2023-04-01T01:46:51;97215.38;;;10.69;100.00
11542;BME280;5827;49.482;7.716;2023-04-01T01:48:54;97207.09;;;10.66;99.61
11542;BME280;5827;49.482;7.716;2023-04-01T01:50:56;97202.09;;;10.59;100.00
11542;BME280;5827;49.482;7.716;2023-04-01T01:53:04;97198.66;;;10.49;100.00
11542;BME280;5827;49.482;7.716;2023-04-01T01:55:26;97203.53;;;10.47;100.00
11542;BME280;5827;49.482;7.716;2023-04-01T01:57:31;97189.84;;;10.48;100.00
11542;BME280;5827;49.482;7.716;2023-04-01T01:59:35;97195.25;;;10.43;100.00
11542;BME280;5827;49.482;7.716;2023-04-01T02:01:41;97197.69;;;10.39;100.00
11542;BME280;5827;49.482;7.716;2023-04-01T02:03:44;97198.97;;;10.47;100.00
11542;BME280;5827;49.482;7.716;2023-04-01T02:05:47;97185.72;;;10.32;100.00
11542;BME280;5827;49.482;7.716;2023-04-01T02:07:54;97194.16;;;10.44;100.00
11542;BME280;5827;49.482;7.716;2023-04-01T02:10:00;97180.78;;;10.44;100.00
11542;BME280;5827;49.482;7.716;2023-04-01T02:12:05;97182.66;;;10.43;100.00
11542;BME280;5827;49.482;7.716;2023-04-01T02:14:10;97188.00;;;10.43;100.00
11542;BME280;5827;49.482;7.716;2023-04-01T02:16:15;97185.66;;;10.37;100.00
11542;BME280;5827;49.482;7.716;2023-04-01T02:18:21;97196.84;;;10.44;100.00
11542;BME280;5827;49.482;7.716;2023-04-01T02:20:24;97186.47;;;10.37;100.00
11542;BME280;5827;49.482;7.716;2023-04-01T02:22:26;97187.81;;;10.35;100.00
11542;BME280;5827;49.482;7.716;2023-04-01T02:24:31;97181.94;;;10.33;100.00
11542;BME280;5827;49.482;7.716;2023-04-01T02:26:36;97183.88;;;10.27;100.00
11542;BME280;5827;49.482;7.716;2023-04-01T02:28:38;97182.00;;;10.28;100.00
11542;BME280;5827;49.482;7.716;2023-04-01T02:30:42;97176.72;;;10.12;100.00
11542;BME280;5827;49.482;7.716;2023-04-01T02:32:46;97184.13;;;10.26;100.00
11542;BME280;5827;49.482;7.716;2023-04-01T02:34:48;97182.31;;;10.16;100.00
11542;BME280;5827;49.482;7.716;2023-04-01T02:36:51;97179.38;;;10.17;100.00
11542;BME280;5827;49.482;7.716;2023-04-01T02:38:54;97190.31;;;10.21;100.00
11542;BME280;5827;49.482;7.716;2023-04-01T02:41:00;97180.97;;;10.18;100.00
11542;BME280;5827;49.482;7.716;2023-04-01T02:43:03;97173.50;;;10.15;100.00
11542;BME280;5827;49.482;7.716;2023-04-01T02:45:06;97178.84;;;10.15;100.00
11542;BME280;5827;49.482;7.716;2023-04-01T02:47:07;97182.16;;;10.02;100.00
11542;BME280;5827;49.482;7.716;2023-04-01T02:49:09;97187.91;;;10.19;100.00
11542;BME280;5827;49.482;7.716;2023-04-01T02:51:10;97174.06;;;10.07;100.00
11542;BME280;5827;49.482;7.716;2023-04-01T02:53:12;97182.06;;;10.17;100.00
11542;BME280;5827;49.482;7.716;2023-04-01T02:55:13;97167.34;;;10.15;100.00
11542;BME280;5827;49.482;7.716;2023-04-01T02:57:15;97159.41;;;10.05;100.00
11542;BME280;5827;49.482;7.716;2023-04-01T02:59:18;97173.25;;;10.12;100.00
11542;BME280;5827;49.482;7.716;2023-04-01T03:01:20;97168.44;;;10.14;100.00
11542;BME280;5827;49.482;7.716;2023-04-01T03:03:21;97167.53;;;10.24;100.00
11542;BME280;5827;49.482;7.716;2023-04-01T03:05:23;97165.56;;;10.39;100.00
11542;BME280;5827;49.482;7.716;2023-04-01T03:07:25;97172.66;;;10.20;100.00
11542;BME280;5827;49.482;7.716;2023-04-01T03:09:26;97170.13;;;10.39;100.00
11542;BME280;5827;49.482;7.716;2023-04-01T03:11:28;97165.34;;;10.36;100.00
11542;BME280;5827;49.482;7.716;2023-04-01T03:13:30;97176.34;;;10.29;100.00
11542;BME280;5827;49.482;7.716;2023-04-01T03:15:33;97179.47;;;10.41;100.00
11542;BME280;5827;49.482;7.716;2023-04-01T03:17:34;97174.56;;;10.49;100.00
11542;BME280;5827;49.482;7.716;2023-04-01T03:19:36;97170.06;;;10.44;100.00
11542;BME280;5827;49.482;7.716;2023-04-01T03:21:37;97176.50;;;10.43;100.00
11542;BME280;5827;49.482;7.716;2023-04-01T03:23:39;97170.44;;;10.32;100.00
11542;BME280;5827;49.482;7.716;2023-04-01T03:25:40;97165.94;;;10.23;100.00
11542;BME280;5827;49.482;7.716;2023-04-01T03:27:42;97180.38;;;10.32;100.00
11542;BME280;5827;49.482;7.716;2023-04-01T03:29:43;97174.91;;;10.42;100.00
11542;BME280;5827;49.482;7.716;2023-04-01T03:31:46;97175.22;;;10.35;100.00
11542;BME280;5827;49.482;7.716;2023-04-01T03:33:48;97169.13;;;10.30;100.00
11542;BME280;5827;49.482;7.716;2023-04-01T03:35:49;97169.03;;;10.40;100.00
11542;BME280;5827;49.482;7.716;2023-04-01T03:37:52;97166.03;;;10.47;100.00
11542;BME280;5827;49.482;7.716;2023-04-01T03:39:54;97162.94;;;10.63;100.00
11542;BME280;5827;49.482;7.716;2023-04-01T03:41:55;97165.59;;;10.34;100.00
11542;BME280;5827;49.482;7.716;2023-04-01T03:43:57;97161.09;;;10.30;100.00
11542;BME280;5827;49.482;7.716;2023-04-01T03:45:58;97160.53;;;10.33;100.00
11542;BME280;5827;49.482;7.716;2023-04-01T03:48:01;97166.28;;;10.50;100.00
11542;BME280;5827;49.482;7.716;2023-04-01T03:50:03;97171.16;;;10.43;100.00
11542;BME280;5827;49.482;7.716;2023-04-01T03:52:09;97156.22;;;10.37;100.00
11542;BME280;5827;49.482;7.716;2023-04-01T03:54:11;97156.78;;;10.34;100.00
11542;BME280;5827;49.482;7.716;2023-04-01T03:56:12;97165.16;;;10.22;100.00
11542;BME280;5827;49.482;7.716;2023-04-01T03:58:14;97172.00;;;10.38;100.00
11542;BME280;5827;49.482;7.716;2023-04-01T04:00:16;97162.31;;;10.42;100.00
11542;BME280;5827;49.482;7.716;2023-04-01T04:02:18;97163.16;;;10.38;100.00
11542;BME280;5827;49.482;7.716;2023-04-01T04:04:21;97164.34;;;10.27;100.00
11542;BME280;5827;49.482;7.716;2023-04-01T04:06:23;97164.81;;;10.34;100.00
11542;BME280;5827;49.482;7.716;2023-04-01T04:08:24;97171.38;;;10.12;100.00
11542;BME280;5827;49.482;7.716;2023-04-01T04:10:26;97156.13;;;10.13;100.00
11542;BME280;5827;49.482;7.716;2023-04-01T04:12:29;97157.75;;;10.09;100.00
11542;BME280;5827;49.482;7.716;2023-04-01T04:14:30;97156.97;;;10.03;100.00
11542;BME280;5827;49.482;7.716;2023-04-01T04:16:34;97162.03;;;10.10;100.00
11542;BME280;5827;49.482;7.716;2023-04-01T04:18:36;97165.09;;;9.93;100.00
11542;BME280;5827;49.482;7.716;2023-04-01T04:20:44;97160.81;;;9.92;100.00
11542;BME280;5827;49.482;7.716;2023-04-01T04:22:47;97165.13;;;9.88;100.00
11542;BME280;5827;49.482;7.716;2023-04-01T04:24:48;97146.94;;;9.85;100.00
11542;BME280;5827;49.482;7.716;2023-04-01T04:26:50;97169.72;;;9.82;100.00
11542;BME280;5827;49.482;7.716;2023-04-01T04:28:51;97159.31;;;9.81;100.00
11542;BME280;5827;49.482;7.716;2023-04-01T04:30:53;97161.31;;;9.99;100.00
11542;BME280;5827;49.482;7.716;2023-04-01T04:32:55;97167.28;;;9.86;100.00
11542;BME280;5827;49.482;7.716;2023-04-01T04:34:56;97158.44;;;9.90;100.00
11542;BME280;5827;49.482;7.716;2023-04-01T04:36:59;97173.19;;;9.83;100.00
11542;BME280;5827;49.482;7.716;2023-04-01T04:39:01;97160.66;;;9.78;100.00
11542;BME280;5827;49.482;7.716;2023-04-01T04:41:03;97159.28;;;9.86;100.00
11542;BME280;5827;49.482;7.716;2023-04-01T04:43:10;97176.94;;;9.82;100.00
11542;BME280;5827;49.482;7.716;2023-04-01T04:45:12;97163.25;;;9.88;100.00
11542;BME280;5827;49.482;7.716;2023-04-01T04:47:13;97161.91;;;9.91;100.00
11542;BME280;5827;49.482;7.716;2023-04-01T04:49:15;97160.31;;;9.85;100.00
11542;BME280;5827;49.482;7.716;2023-04-01T04:51:18;97163.00;;;9.90;100.00
11542;BME280;5827;49.482;7.716;2023-04-01T04:53:21;97155.25;;;9.83;100.00
11542;BME280;5827;49.482;7.716;2023-04-01T04:55:22;97157.19;;;9.78;100.00
11542;BME280;5827;49.482;7.716;2023-04-01T04:57:24;97160.31;;;9.85;100.00
11542;BME280;5827;49.482;7.716;2023-04-01T04:59:25;97154.78;;;9.76;100.00
11542;BME280;5827;49.482;7.716;2023-04-01T05:01:27;97151.47;;;9.89;100.00
11542;BME280;5827;49.482;7.716;2023-04-01T05:03:28;97148.88;;;9.79;100.00
11542;BME280;5827;49.482;7.716;2023-04-01T05:05:31;97152.66;;;9.73;100.00
11542;BME280;5827;49.482;7.716;2023-04-01T05:07:32;97156.63;;;9.76;100.00
11542;BME280;5827;49.482;7.716;2023-04-01T05:09:35;97157.63;;;9.90;100.00
11542;BME280;5827;49.482;7.716;2023-04-01T05:11:37;97161.34;;;9.94;100.00
11542;BME280;5827;49.482;7.716;2023-04-01T05:13:38;97168.34;;;9.85;100.00
11542;BME280;5827;49.482;7.716;2023-04-01T05:15:40;97158.72;;;9.84;100.00
11542;BME280;5827;49.482;7.716;2023-04-01T05:17:42;97162.75;;;9.86;100.00
11542;BME280;5827;49.482;7.716;2023-04-01T05:19:43;97162.69;;;9.91;100.00
11542;BME280;5827;49.482;7.716;2023-04-01T05:21:45;97155.56;;;9.82;100.00
11542;BME280;5827;49.482;7.716;2023-04-01T05:23:46;97174.28;;;9.82;100.00
11542;BME280;5827;49.482;7.716;2023-04-01T05:25:49;97161.34;;;9.94;100.00
11542;BME280;5827;49.482;7.716;2023-04-01T05:27:53;97172.25;;;10.03;100.00
11542;BME280;5827;49.482;7.716;2023-04-01T05:29:54;97159.03;;;9.82;100.00
11542;BME280;5827;49.482;7.716;2023-04-01T05:31:56;97158.66;;;9.99;100.00
11542;BME280;5827;49.482;7.716;2023-04-01T05:33:58;97145.22;;;10.04;100.00
11542;BME280;5827;49.482;7.716;2023-04-01T05:36:05;97142.06;;;9.97;100.00
11542;BME280;5827;49.482;7.716;2023-04-01T05:38:07;97137.25;;;9.94;100.00
11542;BME280;5827;49.482;7.716;2023-04-01T05:40:09;97139.25;;;10.12;100.00
11542;BME280;5827;49.482;7.716;2023-04-01T05:42:12;97142.81;;;10.03;100.00
11542;BME280;5827;49.482;7.716;2023-04-01T05:44:14;97131.00;;;10.09;100.00
11542;BME280;5827;49.482;7.716;2023-04-01T05:46:15;97124.91;;;9.98;100.00
11542;BME280;5827;49.482;7.716;2023-04-01T05:48:16;97136.94;;;10.01;100.00
11542;BME280;5827;49.482;7.716;2023-04-01T05:50:18;97133.56;;;9.90;100.00
11542;BME280;5827;49.482;7.716;2023-04-01T05:52:20;97125.50;;;9.95;100.00
11542;BME280;5827;49.482;7.716;2023-04-01T05:54:22;97129.22;;;9.99;100.00
11542;BME280;5827;49.482;7.716;2023-04-01T05:56:24;97134.97;;;10.11;100.00
11542;BME280;5827;49.482;7.716;2023-04-01T05:58:27;97143.06;;;10.06;100.00
11542;BME280;5827;49.482;7.716;2023-04-01T06:00:28;97138.44;;;10.12;100.00
11542;BME280;5827;49.482;7.716;2023-04-01T06:02:30;97138.78;;;10.05;100.00
11542;BME280;5827;49.482;7.716;2023-04-01T06:04:35;97139.34;;;10.02;100.00
11542;BME280;5827;49.482;7.716;2023-04-01T06:06:38;97148.16;;;10.03;100.00
11542;BME280;5827;49.482;7.716;2023-04-01T06:08:41;97140.47;;;9.96;100.00
11542;BME280;5827;49.482;7.716;2023-04-01T06:10:51;97151.63;;;10.03;100.00
11542;BME280;5827;49.482;7.716;2023-04-01T06:13:00;97148.19;;;9.98;100.00
11542;BME280;5827;49.482;7.716;2023-04-01T06:15:19;97150.16;;;9.87;100.00
11542;BME280;5827;49.482;7.716;2023-04-01T06:17:28;97158.66;;;9.99;100.00
11542;BME280;5827;49.482;7.716;2023-04-01T06:19:36;97157.34;;;9.91;100.00
11542;BME280;5827;49.482;7.716;2023-04-01T06:21:51;97160.91;;;9.82;100.00
11542;BME280;5827;49.482;7.716;2023-04-01T06:24:07;97161.16;;;9.85;100.00
11542;BME280;5827;49.482;7.716;2023-04-01T06:26:24;97171.03;;;9.85;100.00
11542;BME280;5827;49.482;7.716;2023-04-01T06:28:45;97172.03;;;9.94;100.00
11542;BME280;5827;49.482;7.716;2023-04-01T06:30:56;97163.00;;;9.90;100.00
11542;BME280;5827;49.482;7.716;2023-04-01T06:33:29;97165.44;;;9.81;100.00
11542;BME280;5827;49.482;7.716;2023-04-01T06:35:41;97157.03;;;9.98;100.00
11542;BME280;5827;49.482;7.716;2023-04-01T06:38:16;97165.03;;;9.98;100.00
11542;BME280;5827;49.482;7.716;2023-04-01T06:43:01;97171.44;;;10.02;100.00
11542;BME280;5827;49.482;7.716;2023-04-01T06:45:16;97166.38;;;10.01;100.00
11542;BME280;5827;49.482;7.716;2023-04-01T06:47:42;97156.13;;;10.13;100.00
11542;BME280;5827;49.482;7.716;2023-04-01T06:49:48;97156.13;;;10.08;100.00
11542;BME280;5827;49.482;7.716;2023-04-01T06:51:58;97150.16;;;10.21;100.00
11542;BME280;5827;49.482;7.716;2023-04-01T06:54:04;97140.78;;;10.24;100.00
11542;BME280;5827;49.482;7.716;2023-04-01T06:56:09;97147.94;;;10.33;100.00
11542;BME280;5827;49.482;7.716;2023-04-01T06:58:20;97144.28;;;10.24;100.00
11542;BME280;5827;49.482;7.716;2023-04-01T07:00:27;97144.47;;;10.33;100.00
11542;BME280;5827;49.482;7.716;2023-04-01T07:02:37;97149.97;;;10.47;100.00
11542;BME280;5827;49.482;7.716;2023-04-01T07:04:43;97143.34;;;10.68;100.00
11542;BME280;5827;49.482;7.716;2023-04-01T07:06:48;97143.44;;;10.58;100.00
11542;BME280;5827;49.482;7.716;2023-04-01T07:08:53;97138.44;;;10.75;100.00
11542;BME280;5827;49.482;7.716;2023-04-01T07:11:01;97145.41;;;10.47;100.00
11542;BME280;5827;49.482;7.716;2023-04-01T07:13:06;97149.75;;;10.67;100.00
11542;BME280;5827;49.482;7.716;2023-04-01T07:15:17;97145.50;;;10.66;100.00
11542;BME280;5827;49.482;7.716;2023-04-01T07:17:22;97142.44;;;10.49;100.00
11542;BME280;5827;49.482;7.716;2023-04-01T07:19:29;97147.38;;;10.65;100.00
11542;BME280;5827;49.482;7.716;2023-04-01T07:21:35;97147.66;;;10.64;100.00
11542;BME280;5827;49.482;7.716;2023-04-01T07:23:40;97152.41;;;10.72;100.00
11542;BME280;5827;49.482;7.716;2023-04-01T07:25:44;97159.59;;;10.77;100.00
11542;BME280;5827;49.482;7.716;2023-04-01T07:27:50;97159.00;;;10.80;100.00
11542;BME280;5827;49.482;7.716;2023-04-01T07:29:51;97162.84;;;10.74;100.00
11542;BME280;5827;49.482;7.716;2023-04-01T07:32:07;97163.16;;;10.67;100.00
11542;BME280;5827;49.482;7.716;2023-04-01T07:34:17;97169.53;;;11.00;100.00
11542;BME280;5827;49.482;7.716;2023-04-01T07:36:26;97174.94;;;10.95;100.00
11542;BME280;5827;49.482;7.716;2023-04-01T07:38:39;97177.94;;;10.88;100.00
11542;BME280;5827;49.482;7.716;2023-04-01T07:40:49;97175.69;;;11.01;100.00
11542;BME280;5827;49.482;7.716;2023-04-01T07:43:11;97180.34;;;10.90;100.00
11542;BME280;5827;49.482;7.716;2023-04-01T07:45:20;97183.72;;;11.01;100.00
11542;BME280;5827;49.482;7.716;2023-04-01T07:47:38;97184.94;;;11.13;100.00
11542;BME280;5827;49.482;7.716;2023-04-01T07:49:51;97175.25;;;11.12;100.00
11542;BME280;5827;49.482;7.716;2023-04-01T07:52:00;97186.44;;;11.19;100.00
11542;BME280;5827;49.482;7.716;2023-04-01T07:54:09;97188.47;;;11.09;100.00
11542;BME280;5827;49.482;7.716;2023-04-01T07:56:18;97181.53;;;11.27;100.00
11542;BME280;5827;49.482;7.716;2023-04-01T07:58:26;97191.53;;;11.21;100.00
11542;BME280;5827;49.482;7.716;2023-04-01T08:00:39;97192.09;;;10.94;100.00
11542;BME280;5827;49.482;7.716;2023-04-01T08:02:55;97196.38;;;10.95;100.00
11542;BME280;5827;49.482;7.716;2023-04-01T08:05:11;97195.75;;;11.03;100.00
11542;BME280;5827;49.482;7.716;2023-04-01T08:07:18;97198.31;;;11.13;100.00
11542;BME280;5827;49.482;7.716;2023-04-01T08:09:32;97190.84;;;11.10;100.00
11542;BME280;5827;49.482;7.716;2023-04-01T08:11:50;97192.84;;;11.00;100.00
11542;BME280;5827;49.482;7.716;2023-04-01T08:14:02;97196.31;;;11.00;100.00
11542;BME280;5827;49.482;7.716;2023-04-01T08:16:09;97187.19;;;10.77;100.00
11542;BME280;5827;49.482;7.716;2023-04-01T08:18:20;97199.28;;;10.99;100.00
11542;BME280;5827;49.482;7.716;2023-04-01T08:20:28;97203.84;;;10.98;100.00
11542;BME280;5827;49.482;7.716;2023-04-01T08:22:38;97201.28;;;11.12;100.00
11542;BME280;5827;49.482;7.716;2023-04-01T08:24:42;97213.56;;;11.18;100.00
11542;BME280;5827;49.482;7.716;2023-04-01T08:26:49;97209.56;;;11.15;100.00
11542;BME280;5827;49.482;7.716;2023-04-01T08:28:56;97212.72;;;11.17;100.00
11542;BME280;5827;49.482;7.716;2023-04-01T08:31:03;97207.22;;;11.33;100.00
11542;BME280;5827;49.482;7.716;2023-04-01T08:33:09;97211.00;;;11.27;100.00
11542;BME280;5827;49.482;7.716;2023-04-01T08:35:20;97211.78;;;11.32;100.00
11542;BME280;5827;49.482;7.716;2023-04-01T08:37:30;97216.25;;;11.13;100.00
11542;BME280;5827;49.482;7.716;2023-04-01T08:39:37;97220.94;;;11.26;100.00
11542;BME280;5827;49.482;7.716;2023-04-01T08:42:11;97215.09;;;11.00;100.00
11542;BME280;5827;49.482;7.716;2023-04-01T08:44:34;97214.47;;;11.32;100.00
11542;BME280;5827;49.482;7.716;2023-04-01T08:46:51;97221.41;;;11.33;100.00
11542;BME280;5827;49.482;7.716;2023-04-01T08:49:10;97218.31;;;11.21;100.00
11542;BME280;5827;49.482;7.716;2023-04-01T08:56:52;97224.09;;;11.33;100.00
11542;BME280;5827;49.482;7.716;2023-04-01T09:04:05;97226.06;;;11.70;100.00
11542;BME280;5827;49.482;7.716;2023-04-01T09:06:29;97233.22;;;11.56;100.00
11542;BME280;5827;49.482;7.716;2023-04-01T09:08:48;97234.09;;;11.70;100.00
11542;BME280;5827;49.482;7.716;2023-04-01T09:11:00;97241.66;;;11.68;100.00
11542;BME280;5827;49.482;7.716;2023-04-01T09:13:37;97233.22;;;11.56;100.00
11542;BME280;5827;49.482;7.716;2023-04-01T09:16:06;97245.38;;;11.49;100.00
11542;BME280;5827;49.482;7.716;2023-04-01T09:18:26;97241.50;;;11.60;100.00
11542;BME280;5827;49.482;7.716;2023-04-01T09:21:02;97244.28;;;11.50;100.00
11542;BME280;5827;49.482;7.716;2023-04-01T09:23:20;97242.28;;;11.60;100.00
11542;BME280;5827;49.482;7.716;2023-04-01T09:25:38;97253.16;;;11.50;100.00
11542;BME280;5827;49.482;7.716;2023-04-01T09:27:54;97240.63;;;11.40;100.00
11542;BME280;5827;49.482;7.716;2023-04-01T09:30:17;97246.56;;;11.61;100.00
11542;BME280;5827;49.482;7.716;2023-04-01T09:32:39;97252.31;;;11.50;100.00
11542;BME280;5827;49.482;7.716;2023-04-01T09:34:53;97257.06;;;11.58;100.00
11542;BME280;5827;49.482;7.716;2023-04-01T09:37:09;97250.72;;;11.49;100.00
11542;BME280;5827;49.482;7.716;2023-04-01T09:39:34;97254.66;;;11.56;100.00
11542;BME280;5827;49.482;7.716;2023-04-01T09:41:45;97251.81;;;11.48;100.00
11542;BME280;5827;49.482;7.716;2023-04-01T09:44:00;97245.69;;;11.66;100.00
11542;BME280;5827;49.482;7.716;2023-04-01T09:46:14;97253.06;;;11.55;100.00
11542;BME280;5827;49.482;7.716;2023-04-01T09:48:29;97259.41;;;11.64;100.00
11542;BME280;5827;49.482;7.716;2023-04-01T09:50:42;97259.03;;;11.71;100.00
11542;BME280;5827;49.482;7.716;2023-04-01T09:52:51;97262.06;;;11.88;100.00
11542;BME280;5827;49.482;7.716;2023-04-01T09:55:03;97262.44;;;11.77;100.00
11542;BME280;5827;49.482;7.716;2023-04-01T09:57:30;97258.81;;;11.91;100.00
11542;BME280;5827;49.482;7.716;2023-04-01T10:00:10;97269.34;;;11.88;100.00
11542;BME280;5827;49.482;7.716;2023-04-01T10:05:19;97270.06;;;11.69;100.00
11542;BME280;5827;49.482;7.716;2023-04-01T10:08:07;97251.28;;;11.69;100.00
11542;BME280;5827;49.482;7.716;2023-04-01T10:10:38;97261.88;;;11.37;100.00
11542;BME280;5827;49.482;7.716;2023-04-01T10:15:34;97263.13;;;11.68;100.00
11542;BME280;5827;49.482;7.716;2023-04-01T10:18:02;97271.84;;;11.55;100.00
11542;BME280;5827;49.482;7.716;2023-04-01T10:20:25;97271.91;;;11.74;100.00
11542;BME280;5827;49.482;7.716;2023-04-01T10:23:07;97268.63;;;12.01;100.00
11542;BME280;5827;49.482;7.716;2023-04-01T10:25:25;97276.75;;;12.15;100.00
11542;BME280;5827;49.482;7.716;2023-04-01T10:30:37;97275.88;;;12.01;100.00
11542;BME280;5827;49.482;7.716;2023-04-01T10:38:44;97269.78;;;12.33;100.00
11542;BME280;5827;49.482;7.716;2023-04-01T10:43:52;97278.75;;;12.61;100.00
11542;BME280;5827;49.482;7.716;2023-04-01T10:46:25;97267.00;;;12.57;100.00
11542;BME280;5827;49.482;7.716;2023-04-01T10:49:00;97277.31;;;12.31;100.00
11542;BME280;5827;49.482;7.716;2023-04-01T10:51:19;97278.91;;;12.32;100.00
11542;BME280;5827;49.482;7.716;2023-04-01T10:53:35;97273.75;;;11.98;100.00
11542;BME280;5827;49.482;7.716;2023-04-01T10:55:58;97283.00;;;12.10;100.00
11542;BME280;5827;49.482;7.716;2023-04-01T10:58:42;97271.22;;;11.87;100.00
11542;BME280;5827;49.482;7.716;2023-04-01T11:03:57;97280.66;;;12.23;100.00
11542;BME280;5827;49.482;7.716;2023-04-01T11:17:14;97295.09;;;12.27;100.00
11542;BME280;5827;49.482;7.716;2023-04-01T11:20:04;97298.50;;;12.32;100.00
11542;BME280;5827;49.482;7.716;2023-04-01T11:22:32;97295.41;;;12.06;100.00
11542;BME280;5827;49.482;7.716;2023-04-01T11:24:56;97301.50;;;12.31;100.00
11542;BME280;5827;49.482;7.716;2023-04-01T11:27:10;97292.84;;;11.96;100.00
11542;BME280;5827;49.482;7.716;2023-04-01T11:32:03;97299.19;;;12.05;100.00
11542;BME280;5827;49.482;7.716;2023-04-01T11:34:16;97294.16;;;12.17;100.00
11542;BME280;5827;49.482;7.716;2023-04-01T11:36:35;97302.03;;;12.33;100.00
11542;BME280;5827;49.482;7.716;2023-04-01T11:38:53;97313.19;;;12.40;100.00
11542;BME280;5827;49.482;7.716;2023-04-01T11:41:06;97320.00;;;12.70;100.00
11542;BME280;5827;49.482;7.716;2023-04-01T11:43:18;97307.69;;;12.83;100.00
11542;BME280;5827;49.482;7.716;2023-04-01T11:45:30;97314.56;;;12.56;100.00
11542;BME280;5827;49.482;7.716;2023-04-01T11:47:56;97317.31;;;12.32;100.00
11542;BME280;5827;49.482;7.716;2023-04-01T11:50:15;97317.66;;;12.63;100.00
11542;BME280;5827;49.482;7.716;2023-04-01T11:52:26;97315.59;;;12.60;100.00
11542;BME280;5827;49.482;7.716;2023-04-01T11:54:41;97325.25;;;12.42;100.00
11542;BME280;5827;49.482;7.716;2023-04-01T11:57:03;97319.78;;;12.48;100.00
11542;BME280;5827;49.482;7.716;2023-04-01T11:59:27;97331.03;;;12.68;100.00
11542;BME280;5827;49.482;7.716;2023-04-01T12:01:54;97334.66;;;12.78;100.00
11542;BME280;5827;49.482;7.716;2023-04-01T12:04:18;97326.75;;;13.00;100.00
11542;BME280;5827;49.482;7.716;2023-04-01T12:06:32;97336.41;;;12.68;100.00
11542;BME280;5827;49.482;7.716;2023-04-01T12:08:41;97345.41;;;12.78;100.00
11542;BME280;5827;49.482;7.716;2023-04-01T12:10:53;97351.25;;;12.98;100.00
11542;BME280;5827;49.482;7.716;2023-04-01T12:13:04;97359.47;;;12.32;100.00
11542;BME280;5827;49.482;7.716;2023-04-01T12:15:17;97350.03;;;12.15;100.00